createdAt,value
2018-12-31T00:00:43.677Z,11.87
2018-12-31T00:03:11.961Z,12.20
2018-12-31T00:05:40.227Z,13.13
2018-12-31T00:08:08.434Z,8.87
2018-12-31T00:10:36.703Z,10.00
2018-12-31T00:13:04.962Z,9.70
2018-12-31T00:15:34.230Z,13.40
2018-12-31T00:18:02.534Z,8.70
2018-12-31T00:20:30.794Z,10.07
2018-12-31T00:22:59.058Z,11.17
2018-12-31T00:25:27.341Z,11.40
2018-12-31T00:27:55.606Z,13.40
2018-12-31T00:30:23.883Z,8.37
2018-12-31T00:32:52.091Z,12.00
2018-12-31T00:35:20.306Z,13.33
2018-12-31T00:37:48.567Z,9.53
2018-12-31T00:40:16.852Z,8.47
2018-12-31T00:42:45.114Z,11.80
2018-12-31T00:45:13.326Z,12.77
2018-12-31T00:47:41.526Z,10.57
2018-12-31T00:50:09.813Z,11.30
2018-12-31T00:52:38.002Z,9.80
2018-12-31T00:55:06.209Z,11.90
2018-12-31T00:57:34.410Z,13.07
2018-12-31T01:00:02.882Z,9.93
2018-12-31T01:02:31.147Z,9.70
2018-12-31T01:04:59.426Z,7.53
2018-12-31T01:07:27.687Z,8.27
2018-12-31T01:09:55.978Z,10.67
2018-12-31T01:12:24.238Z,9.33
2018-12-31T01:14:52.522Z,9.83
2018-12-31T01:17:20.782Z,14.07
2018-12-31T01:19:49.070Z,14.83
2018-12-31T01:22:17.329Z,12.63
2018-12-31T01:24:45.539Z,9.17
2018-12-31T01:27:13.803Z,9.23
2018-12-31T01:29:42.091Z,9.73
2018-12-31T01:32:10.347Z,11.47
2018-12-31T01:34:38.619Z,10.40
2018-12-31T01:37:06.911Z,16.27
2018-12-31T01:39:35.177Z,12.30
2018-12-31T01:42:03.388Z,8.03
2018-12-31T01:44:31.658Z,11.53
2018-12-31T01:46:59.947Z,8.13
2018-12-31T01:49:28.482Z,9.20
2018-12-31T01:51:56.773Z,10.23
2018-12-31T01:54:24.966Z,11.50
2018-12-31T01:56:53.173Z,8.60
2018-12-31T01:59:21.441Z,10.67
2018-12-31T02:01:49.721Z,8.70
2018-12-31T02:04:17.914Z,8.57
2018-12-31T02:06:46.193Z,9.07
2018-12-31T02:09:14.385Z,8.87
2018-12-31T02:11:42.675Z,8.30
2018-12-31T02:14:11.009Z,9.53
2018-12-31T02:16:39.229Z,12.20
2018-12-31T02:19:07.414Z,9.50
2018-12-31T02:21:35.694Z,11.50
2018-12-31T02:24:03.886Z,9.70
2018-12-31T02:26:32.172Z,12.23
2018-12-31T02:29:00.449Z,9.50
2018-12-31T02:31:28.830Z,10.93
2018-12-31T02:33:57.090Z,10.17
2018-12-31T02:36:25.298Z,13.13
2018-12-31T02:38:53.562Z,10.30
2018-12-31T02:41:21.846Z,8.57
2018-12-31T02:43:50.106Z,10.43
2018-12-31T02:46:18.389Z,11.83
2018-12-31T02:48:46.578Z,9.40
2018-12-31T02:51:14.783Z,9.50
2018-12-31T02:53:43.039Z,8.90
2018-12-31T02:56:11.303Z,9.13
2018-12-31T02:58:39.595Z,11.57
2018-12-31T03:01:07.786Z,7.97
2018-12-31T03:03:36.075Z,8.20
2018-12-31T03:06:04.330Z,9.10
2018-12-31T03:08:32.615Z,10.93
2018-12-31T03:11:01.141Z,9.40
2018-12-31T03:13:29.421Z,7.43
2018-12-31T03:15:57.682Z,9.93
2018-12-31T03:18:25.964Z,9.77
2018-12-31T03:20:54.230Z,7.50
2018-12-31T03:23:22.505Z,7.80
2018-12-31T03:25:50.768Z,7.53
2018-12-31T03:28:19.050Z,9.37
2018-12-31T03:30:47.235Z,8.53
2018-12-31T03:33:15.442Z,7.30
2018-12-31T03:35:43.626Z,6.50
2018-12-31T03:38:11.835Z,6.53
2018-12-31T03:40:40.099Z,7.33
2018-12-31T03:43:08.382Z,7.10
2018-12-31T03:45:36.586Z,10.83
2018-12-31T03:48:04.845Z,6.47
2018-12-31T03:50:33.106Z,7.50
2018-12-31T03:53:01.327Z,10.43
2018-12-31T03:55:29.590Z,7.03
2018-12-31T03:57:57.865Z,5.80
2018-12-31T04:00:26.127Z,7.10
2018-12-31T04:02:54.410Z,6.30
2018-12-31T04:05:22.856Z,5.90
2018-12-31T04:07:53.107Z,6.27
2018-12-31T04:10:21.041Z,7.87
2018-12-31T04:12:49.305Z,5.87
2018-12-31T04:15:17.586Z,6.30
2018-12-31T04:17:45.954Z,5.97
2018-12-31T04:20:14.241Z,9.60
2018-12-31T04:22:42.505Z,7.07
2018-12-31T04:25:10.720Z,7.57
2018-12-31T04:27:38.986Z,7.20
2018-12-31T04:30:07.270Z,6.60
2018-12-31T04:32:35.538Z,7.20
2018-12-31T04:35:03.814Z,8.60
2018-12-31T04:37:32.066Z,6.00
2018-12-31T04:40:00.332Z,7.83
2018-12-31T04:42:28.558Z,6.23
2018-12-31T04:44:56.847Z,7.63
2018-12-31T04:47:25.110Z,7.47
2018-12-31T04:49:53.794Z,5.97
2018-12-31T04:52:22.053Z,6.33
2018-12-31T04:54:50.262Z,9.77
2018-12-31T04:57:18.517Z,6.17
2018-12-31T04:59:46.730Z,7.30
2018-12-31T05:02:15.005Z,5.23
2018-12-31T05:04:43.282Z,5.90
2018-12-31T05:07:11.478Z,8.10
2018-12-31T05:09:39.771Z,4.47
2018-12-31T05:12:08.038Z,5.73
2018-12-31T05:14:36.248Z,6.63
2018-12-31T05:17:04.506Z,4.97
2018-12-31T05:19:35.213Z,7.60
2018-12-31T05:22:03.407Z,5.07
2018-12-31T05:24:31.689Z,4.60
2018-12-31T05:26:59.953Z,5.03
2018-12-31T05:29:28.232Z,4.37
2018-12-31T05:31:56.495Z,5.77
2018-12-31T05:34:24.774Z,4.27
2018-12-31T05:36:53.037Z,6.77
2018-12-31T05:39:21.322Z,6.07
2018-12-31T05:41:49.581Z,5.10
2018-12-31T05:44:17.846Z,4.40
2018-12-31T05:46:46.128Z,5.33
2018-12-31T05:49:14.440Z,4.43
2018-12-31T05:51:42.702Z,7.13
2018-12-31T05:54:10.965Z,4.23
2018-12-31T05:56:39.246Z,5.10
2018-12-31T05:59:07.420Z,4.23
2018-12-31T06:01:35.631Z,7.00
2018-12-31T06:04:03.893Z,5.33
2018-12-31T06:06:32.170Z,4.30
2018-12-31T06:09:00.426Z,5.87
2018-12-31T06:11:28.706Z,4.40
2018-12-31T06:13:56.975Z,5.10
2018-12-31T06:16:25.267Z,6.77
2018-12-31T06:18:53.527Z,5.27
2018-12-31T06:21:21.809Z,4.80
2018-12-31T06:23:50.066Z,5.77
2018-12-31T06:26:18.351Z,4.60
2018-12-31T06:28:46.619Z,5.20
2018-12-31T06:31:14.898Z,5.17
2018-12-31T06:33:43.161Z,6.13
2018-12-31T06:36:11.442Z,5.70
2018-12-31T06:38:39.697Z,5.20
2018-12-31T06:41:07.911Z,6.00
2018-12-31T06:43:36.174Z,5.13
2018-12-31T06:46:04.464Z,5.97
2018-12-31T06:48:32.749Z,6.50
2018-12-31T06:51:01.025Z,9.03
2018-12-31T06:53:29.215Z,5.90
2018-12-31T06:55:57.508Z,8.40
2018-12-31T06:58:25.779Z,7.50
2018-12-31T07:00:54.062Z,6.27
2018-12-31T07:03:22.326Z,6.53
2018-12-31T07:05:50.550Z,6.53
2018-12-31T07:08:18.815Z,4.90
2018-12-31T07:10:47.094Z,6.30
2018-12-31T07:13:15.365Z,5.20
2018-12-31T07:15:43.626Z,4.73
2018-12-31T07:18:11.910Z,5.70
2018-12-31T07:20:40.106Z,5.20
2018-12-31T07:23:08.391Z,5.73
2018-12-31T07:25:36.658Z,7.13
2018-12-31T07:28:05.046Z,7.00
2018-12-31T07:30:33.307Z,5.60
2018-12-31T07:33:01.588Z,6.50
2018-12-31T07:35:29.784Z,5.90
2018-12-31T07:37:58.069Z,6.23
2018-12-31T07:40:26.339Z,5.83
2018-12-31T07:42:54.626Z,6.23
2018-12-31T07:45:22.886Z,5.90
2018-12-31T07:47:51.175Z,5.30
2018-12-31T07:50:19.554Z,4.80
2018-12-31T07:52:47.842Z,5.23
2018-12-31T07:55:16.095Z,5.33
2018-12-31T07:57:44.383Z,4.87
2018-12-31T08:00:13.773Z,6.40
2018-12-31T08:02:42.054Z,5.60
2018-12-31T08:05:10.320Z,4.50
2018-12-31T08:07:38.597Z,5.00
2018-12-31T08:10:06.860Z,4.80
2018-12-31T08:12:35.137Z,8.20
2018-12-31T08:15:03.698Z,4.70
2018-12-31T08:17:31.982Z,4.90
2018-12-31T08:20:00.263Z,5.27
2018-12-31T08:22:28.553Z,4.77
2018-12-31T08:24:56.738Z,5.10
2018-12-31T08:27:25.023Z,5.93
2018-12-31T08:29:53.282Z,5.90
2018-12-31T08:32:21.566Z,5.43
2018-12-31T08:34:49.901Z,5.47
2018-12-31T08:37:18.181Z,5.90
2018-12-31T08:39:46.370Z,10.67
2018-12-31T08:42:14.654Z,8.13
2018-12-31T08:44:42.839Z,5.37
2018-12-31T08:47:11.109Z,5.97
2018-12-31T08:49:39.381Z,7.57
2018-12-31T08:52:07.566Z,5.17
2018-12-31T08:54:35.863Z,4.67
2018-12-31T08:57:04.121Z,6.10
2018-12-31T08:59:32.414Z,8.00
2018-12-31T09:02:01.624Z,5.20
2018-12-31T09:04:29.960Z,5.60
2018-12-31T09:06:58.217Z,6.53
2018-12-31T09:09:26.426Z,5.53
2018-12-31T09:11:54.689Z,5.30
2018-12-31T09:14:22.977Z,5.17
2018-12-31T09:16:51.238Z,5.70
2018-12-31T09:19:19.442Z,6.70
2018-12-31T09:21:47.703Z,6.60
2018-12-31T09:24:15.985Z,8.40
2018-12-31T09:26:44.183Z,6.57
2018-12-31T09:29:12.457Z,7.03
2018-12-31T09:31:40.650Z,6.57
2018-12-31T09:34:08.934Z,6.13
2018-12-31T09:36:37.196Z,6.47
2018-12-31T09:39:06.346Z,5.80
2018-12-31T09:41:34.605Z,6.00
2018-12-31T09:44:02.882Z,9.43
2018-12-31T09:46:31.141Z,7.67
2018-12-31T09:48:59.425Z,9.37
2018-12-31T09:51:27.690Z,7.87
2018-12-31T09:53:55.972Z,6.60
2018-12-31T09:56:24.230Z,6.03
2018-12-31T09:58:52.507Z,6.77
2018-12-31T10:01:20.765Z,7.40
2018-12-31T10:03:48.971Z,6.93
2018-12-31T10:06:17.242Z,7.47
2018-12-31T10:08:49.184Z,6.67
2018-12-31T10:11:15.366Z,7.43
2018-12-31T10:13:43.627Z,6.80
2018-12-31T10:16:11.909Z,6.70
2018-12-31T10:18:40.089Z,6.30
2018-12-31T10:21:08.294Z,6.00
2018-12-31T10:23:36.490Z,5.03
2018-12-31T10:26:04.770Z,6.93
2018-12-31T10:28:33.032Z,6.27
2018-12-31T10:31:01.317Z,5.63
2018-12-31T10:33:29.581Z,6.07
2018-12-31T10:35:57.870Z,7.50
2018-12-31T10:38:26.067Z,5.50
2018-12-31T10:40:54.342Z,6.50
2018-12-31T10:43:22.527Z,7.60
2018-12-31T10:45:50.885Z,6.47
2018-12-31T10:48:19.069Z,5.73
2018-12-31T10:50:47.349Z,6.30
2018-12-31T10:53:15.611Z,6.47
2018-12-31T10:55:43.834Z,6.30
2018-12-31T10:58:12.098Z,7.30
2018-12-31T11:00:40.377Z,7.20
2018-12-31T11:03:08.643Z,6.53
2018-12-31T11:05:36.925Z,6.37
2018-12-31T11:08:05.182Z,6.47
2018-12-31T11:10:33.469Z,9.10
2018-12-31T11:13:01.793Z,7.47
2018-12-31T11:15:30.139Z,7.50
2018-12-31T11:17:58.395Z,6.13
2018-12-31T11:20:26.674Z,9.70
2018-12-31T11:22:54.934Z,8.57
2018-12-31T11:25:23.219Z,7.97
2018-12-31T11:27:51.482Z,6.43
2018-12-31T11:30:19.768Z,7.67
2018-12-31T11:32:48.031Z,8.43
2018-12-31T11:35:16.286Z,8.20
2018-12-31T11:37:44.575Z,9.13
2018-12-31T11:40:12.901Z,8.10
2018-12-31T11:42:41.105Z,8.33
2018-12-31T11:45:09.290Z,8.70
2018-12-31T11:47:37.498Z,8.20
2018-12-31T11:50:05.831Z,9.57
2018-12-31T11:52:34.118Z,7.63
2018-12-31T11:55:03.516Z,7.37
2018-12-31T11:57:31.871Z,11.00
2018-12-31T12:00:00.188Z,7.37
2018-12-31T12:02:28.426Z,10.10
2018-12-31T12:04:56.690Z,5.67
2018-12-31T12:07:24.973Z,8.07
2018-12-31T12:09:53.229Z,7.23
2018-12-31T12:12:21.814Z,6.90
2018-12-31T12:14:50.079Z,5.93
2018-12-31T12:17:18.354Z,8.97
2018-12-31T12:19:46.618Z,7.70
2018-12-31T12:22:14.948Z,9.43
2018-12-31T12:24:43.369Z,8.47
2018-12-31T12:27:11.652Z,8.83
2018-12-31T12:29:39.917Z,9.60
2018-12-31T12:32:09.661Z,8.23
2018-12-31T12:34:37.859Z,9.80
2018-12-31T12:37:06.146Z,11.33
2018-12-31T12:39:34.417Z,9.63
2018-12-31T12:42:02.701Z,9.70
2018-12-31T12:44:30.962Z,8.80
2018-12-31T12:46:59.251Z,8.00
2018-12-31T12:49:27.518Z,9.50
2018-12-31T12:51:55.798Z,11.43
2018-12-31T12:54:24.062Z,11.80
2018-12-31T12:56:52.331Z,10.87
2018-12-31T12:59:20.617Z,10.80
2018-12-31T13:01:48.878Z,12.47
2018-12-31T13:04:17.431Z,11.23
2018-12-31T13:06:45.642Z,12.67
2018-12-31T13:09:13.923Z,11.53
2018-12-31T13:11:42.186Z,12.40
2018-12-31T13:14:12.171Z,13.23
2018-12-31T13:16:40.381Z,11.27
2018-12-31T13:19:09.292Z,13.73
2018-12-31T13:21:37.487Z,11.30
2018-12-31T13:24:05.783Z,14.20
2018-12-31T13:26:34.048Z,9.83
2018-12-31T13:29:02.709Z,10.67
2018-12-31T13:31:30.970Z,10.17
2018-12-31T13:33:59.254Z,9.93
2018-12-31T13:36:27.522Z,11.17
2018-12-31T13:38:55.814Z,9.87
2018-12-31T13:41:24.074Z,10.33
2018-12-31T13:43:52.362Z,12.60
2018-12-31T13:46:20.626Z,14.27
2018-12-31T13:48:48.918Z,13.13
2018-12-31T13:51:17.190Z,9.90
2018-12-31T13:53:45.470Z,9.33
2018-12-31T13:56:13.736Z,8.63
2018-12-31T13:58:42.023Z,9.60
2018-12-31T14:01:10.278Z,8.63
2018-12-31T14:03:38.561Z,8.13
2018-12-31T14:06:06.829Z,14.67
2018-12-31T14:08:35.718Z,13.80
2018-12-31T14:11:03.986Z,13.00
2018-12-31T14:13:32.275Z,11.27
2018-12-31T14:16:00.546Z,11.43
2018-12-31T14:18:28.830Z,9.60
2018-12-31T14:20:58.066Z,11.70
2018-12-31T14:23:26.370Z,9.50
2018-12-31T14:25:54.738Z,8.17
2018-12-31T14:28:22.997Z,8.53
2018-12-31T14:30:51.287Z,9.90
2018-12-31T14:33:19.853Z,8.63
2018-12-31T14:35:48.143Z,11.33
2018-12-31T14:38:16.402Z,9.27
2018-12-31T14:40:44.683Z,11.47
2018-12-31T14:43:12.942Z,10.30
2018-12-31T14:45:41.230Z,12.77
2018-12-31T14:48:09.490Z,13.03
2018-12-31T14:50:37.778Z,12.80
2018-12-31T14:53:06.050Z,17.57
2018-12-31T14:55:34.339Z,14.07
2018-12-31T14:58:02.597Z,14.23
2018-12-31T15:00:30.899Z,16.07
2018-12-31T15:02:59.162Z,17.67
2018-12-31T15:05:27.453Z,15.47
2018-12-31T15:07:55.718Z,14.60
2018-12-31T15:10:24.014Z,15.37
2018-12-31T15:12:52.377Z,12.27
2018-12-31T15:15:20.669Z,12.07
2018-12-31T15:17:48.934Z,10.37
2018-12-31T15:20:17.243Z,14.60
2018-12-31T15:22:45.494Z,11.20
2018-12-31T15:25:13.986Z,12.10
2018-12-31T15:27:42.248Z,13.40
2018-12-31T15:30:10.546Z,14.90
2018-12-31T15:32:38.806Z,12.50
2018-12-31T15:35:07.093Z,12.77
2018-12-31T15:37:35.362Z,10.37
2018-12-31T15:40:04.418Z,11.63
2018-12-31T15:42:32.699Z,11.63
2018-12-31T15:45:00.994Z,13.07
2018-12-31T15:47:29.247Z,9.60
2018-12-31T15:49:57.516Z,9.73
2018-12-31T15:52:25.791Z,7.13
2018-12-31T15:54:54.053Z,8.53
2018-12-31T15:57:22.334Z,7.53
2018-12-31T15:59:50.594Z,6.00
2018-12-31T16:02:18.890Z,6.63
2018-12-31T16:04:47.354Z,7.77
2018-12-31T16:07:15.634Z,6.43
2018-12-31T16:09:43.894Z,5.50
2018-12-31T16:12:12.177Z,6.53
2018-12-31T16:14:40.446Z,5.50
2018-12-31T16:17:08.747Z,6.20
2018-12-31T16:19:37.010Z,6.30
2018-12-31T16:22:05.293Z,7.00
2018-12-31T16:24:33.588Z,6.13
2018-12-31T16:27:01.877Z,5.70
2018-12-31T16:29:30.131Z,6.73
2018-12-31T16:31:58.614Z,7.83
2018-12-31T16:34:26.874Z,6.87
2018-12-31T16:36:55.179Z,8.17
2018-12-31T16:39:23.439Z,8.07
2018-12-31T16:41:51.726Z,8.13
2018-12-31T16:44:20.363Z,7.80
2018-12-31T16:46:48.641Z,7.60
2018-12-31T16:49:16.903Z,8.40
2018-12-31T16:51:45.231Z,8.27
2018-12-31T16:54:13.490Z,8.37
2018-12-31T16:56:41.757Z,7.67
2018-12-31T16:59:10.041Z,8.00
2018-12-31T17:01:38.301Z,8.13
2018-12-31T17:04:06.590Z,9.37
2018-12-31T17:06:35.946Z,23.17
2018-12-31T17:09:05.797Z,12.83
2018-12-31T17:11:34.271Z,12.73
2018-12-31T17:14:02.570Z,142.17
2018-12-31T17:16:30.833Z,32.13
2018-12-31T17:18:59.137Z,23.30
2018-12-31T17:21:27.397Z,23.43
2018-12-31T17:23:55.857Z,20.93
2018-12-31T17:26:24.153Z,16.50
2018-12-31T17:28:52.422Z,15.37
2018-12-31T17:31:20.711Z,17.50
2018-12-31T17:33:48.987Z,15.10
2018-12-31T17:36:17.269Z,14.50
2018-12-31T17:38:45.538Z,16.70
2018-12-31T17:41:13.835Z,19.33
2018-12-31T17:43:42.099Z,17.60
2018-12-31T17:46:10.385Z,23.60
2018-12-31T17:48:38.653Z,24.60
2018-12-31T17:51:09.545Z,23.77
2018-12-31T17:53:37.823Z,23.80
2018-12-31T17:56:06.106Z,26.73
2018-12-31T17:58:34.369Z,25.50
2018-12-31T18:01:02.673Z,23.70
2018-12-31T18:03:31.241Z,27.73
2018-12-31T18:05:59.509Z,18.07
2018-12-31T18:08:27.800Z,20.10
2018-12-31T18:10:56.079Z,18.43
2018-12-31T18:13:24.370Z,24.10
2018-12-31T18:15:52.649Z,18.90
2018-12-31T18:18:20.931Z,16.33
2018-12-31T18:20:49.202Z,17.70
2018-12-31T18:23:17.502Z,16.93
2018-12-31T18:25:45.780Z,20.30
2018-12-31T18:28:14.063Z,20.00
2018-12-31T18:30:42.538Z,23.00
2018-12-31T18:33:10.827Z,24.17
2018-12-31T18:35:39.099Z,22.10
2018-12-31T18:38:07.381Z,23.03
2018-12-31T18:40:35.662Z,22.83
2018-12-31T18:43:04.246Z,24.80
2018-12-31T18:45:32.525Z,20.20
2018-12-31T18:48:00.822Z,25.17
2018-12-31T18:50:29.085Z,26.37
2018-12-31T18:52:57.371Z,24.47
2018-12-31T18:55:25.638Z,23.00
2018-12-31T18:57:53.931Z,29.87
2018-12-31T19:00:22.198Z,24.47
2018-12-31T19:02:50.485Z,25.67
2018-12-31T19:05:18.761Z,26.37
2018-12-31T19:07:47.034Z,23.67
2018-12-31T19:10:15.517Z,34.40
2018-12-31T19:12:43.794Z,31.20
2018-12-31T19:15:12.079Z,35.20
2018-12-31T19:17:40.354Z,32.10
2018-12-31T19:20:08.641Z,26.97
2018-12-31T19:22:36.909Z,24.70
2018-12-31T19:25:05.210Z,28.27
2018-12-31T19:27:33.474Z,25.77
2018-12-31T19:30:01.772Z,29.80
2018-12-31T19:32:30.035Z,29.23
2018-12-31T19:34:58.326Z,27.50
2018-12-31T19:37:26.886Z,34.33
2018-12-31T19:39:55.170Z,38.57
2018-12-31T19:42:23.433Z,40.17
2018-12-31T19:44:51.730Z,51.63
2018-12-31T19:47:20.003Z,55.60
2018-12-31T19:49:48.293Z,60.63
2018-12-31T19:52:16.562Z,61.00
2018-12-31T19:54:44.858Z,62.87
2018-12-31T19:57:13.126Z,66.13
2018-12-31T19:59:41.417Z,64.60
2018-12-31T20:02:09.681Z,59.83
2018-12-31T20:04:38.070Z,57.20
2018-12-31T20:07:06.347Z,51.83
2018-12-31T20:09:34.634Z,45.40
2018-12-31T20:12:02.906Z,45.40
2018-12-31T20:14:31.195Z,48.00
2018-12-31T20:16:59.569Z,51.53
2018-12-31T20:19:27.854Z,54.13
2018-12-31T20:21:56.114Z,64.63
2018-12-31T20:24:24.406Z,63.40
2018-12-31T20:26:52.665Z,68.43
2018-12-31T20:29:20.969Z,74.70
2018-12-31T20:31:49.530Z,74.83
2018-12-31T20:34:17.822Z,75.07
2018-12-31T20:36:46.083Z,80.33
2018-12-31T20:39:14.369Z,79.17
2018-12-31T20:41:42.638Z,74.70
2018-12-31T20:44:10.922Z,47.57
2018-12-31T20:46:39.389Z,59.37
2018-12-31T20:49:07.670Z,66.20
2018-12-31T20:51:35.958Z,66.10
2018-12-31T20:54:04.225Z,61.53
2018-12-31T20:56:34.162Z,71.40
2018-12-31T20:59:02.423Z,81.20
2018-12-31T21:01:30.709Z,78.93
2018-12-31T21:03:58.978Z,68.07
2018-12-31T21:06:27.274Z,79.83
2018-12-31T21:08:55.547Z,84.47
2018-12-31T21:11:23.833Z,69.50
2018-12-31T21:13:52.314Z,71.77
2018-12-31T21:16:20.607Z,66.77
2018-12-31T21:18:49.593Z,58.03
2018-12-31T21:21:17.891Z,55.20
2018-12-31T21:23:46.166Z,59.83
2018-12-31T21:26:14.446Z,61.10
2018-12-31T21:28:42.735Z,69.03
2018-12-31T21:31:11.029Z,85.80
2018-12-31T21:33:39.294Z,83.93
2018-12-31T21:36:07.593Z,64.50
2018-12-31T21:38:35.849Z,67.80
2018-12-31T21:41:04.540Z,65.67
2018-12-31T21:43:32.814Z,67.47
2018-12-31T21:46:01.110Z,61.07
2018-12-31T21:48:29.373Z,59.60
2018-12-31T21:50:57.661Z,60.37
2018-12-31T21:53:25.930Z,55.37
2018-12-31T21:55:54.222Z,56.10
2018-12-31T21:58:22.492Z,58.33
2018-12-31T22:00:50.777Z,58.33
2018-12-31T22:03:19.045Z,56.20
2018-12-31T22:05:47.325Z,55.00
2018-12-31T22:08:15.596Z,64.80
2018-12-31T22:10:43.877Z,53.30
2018-12-31T22:13:12.156Z,110.13
2018-12-31T22:15:40.438Z,77.07
2018-12-31T22:18:08.697Z,60.37
2018-12-31T22:20:36.982Z,58.57
2018-12-31T22:23:05.249Z,54.97
2018-12-31T22:25:33.518Z,57.00
2018-12-31T22:28:01.806Z,59.20
2018-12-31T22:30:30.078Z,58.83
2018-12-31T22:32:58.362Z,60.30
2018-12-31T22:35:26.640Z,58.30
2018-12-31T22:37:54.923Z,53.07
2018-12-31T22:40:23.191Z,56.50
2018-12-31T22:42:51.474Z,62.57
2018-12-31T22:45:19.745Z,60.80
2018-12-31T22:47:48.031Z,57.03
2018-12-31T22:50:16.308Z,59.97
2018-12-31T22:52:44.596Z,70.50
2018-12-31T22:55:12.871Z,72.77
2018-12-31T22:57:41.564Z,73.13
2018-12-31T23:00:10.103Z,77.57
2018-12-31T23:02:38.659Z,71.30
2018-12-31T23:08:03.166Z,72.33
2018-12-31T23:10:31.734Z,78.20
2018-12-31T23:13:00.022Z,75.40
2018-12-31T23:15:28.290Z,82.43
2018-12-31T23:17:56.583Z,94.90
2018-12-31T23:20:24.850Z,139.67
2018-12-31T23:22:53.150Z,198.73
2018-12-31T23:25:21.431Z,268.97
2018-12-31T23:27:49.722Z,417.67
2018-12-31T23:30:17.927Z,506.53
2018-12-31T23:32:46.218Z,538.13
2018-12-31T23:35:14.486Z,476.23
2018-12-31T23:37:43.774Z,530.33
2018-12-31T23:40:12.045Z,595.50
2018-12-31T23:42:40.337Z,660.07
2018-12-31T23:45:09.473Z,667.53
2018-12-31T23:47:37.772Z,638.03
2018-12-31T23:50:07.510Z,679.60
2018-12-31T23:52:35.817Z,654.73
2018-12-31T23:55:04.652Z,577.87
2018-12-31T23:57:32.947Z,598.37
